createdAt,value
2023-04-10T00:01:15.349Z,5.97
2023-04-10T00:03:43.000Z,5.93
2023-04-10T00:06:10.756Z,5.93
2023-04-10T00:08:38.181Z,5.91
2023-04-10T00:11:06.093Z,5.96
2023-04-10T00:13:33.530Z,5.98
2023-04-10T00:16:01.340Z,5.87
2023-04-10T00:18:28.920Z,5.91
2023-04-10T00:20:56.512Z,5.89
2023-04-10T00:23:24.481Z,5.90
2023-04-10T00:25:51.905Z,5.89
2023-04-10T00:28:19.446Z,5.87
2023-04-10T00:30:46.968Z,5.83
2023-04-10T00:33:14.638Z,5.86
2023-04-10T00:35:42.174Z,5.89
2023-04-10T00:38:09.669Z,5.99
2023-04-10T00:40:37.353Z,6.01
2023-04-10T00:43:05.154Z,6.05
2023-04-10T00:45:32.782Z,6.03
2023-04-10T00:48:00.593Z,6.07
2023-04-10T00:50:28.088Z,6.04
2023-04-10T00:52:57.399Z,6.05
2023-04-10T00:55:25.871Z,6.02
2023-04-10T00:57:56.691Z,6.00
2023-04-10T01:00:24.242Z,5.99
2023-04-10T01:02:52.280Z,5.97
2023-04-10T01:05:20.169Z,6.00
2023-04-10T01:08:12.497Z,5.98
2023-04-10T01:11:10.532Z,5.96
2023-04-10T01:14:07.729Z,5.94
2023-04-10T01:16:43.129Z,5.94
2023-04-10T01:19:47.526Z,5.96
2023-04-10T01:22:17.720Z,5.93
2023-04-10T01:25:02.353Z,5.93
2023-04-10T01:28:07.638Z,5.92
2023-04-10T01:30:37.311Z,5.90
2023-04-10T01:33:09.940Z,5.89
2023-04-10T01:35:38.981Z,5.97
2023-04-10T01:38:08.033Z,5.97
2023-04-10T01:40:39.756Z,6.02
2023-04-10T01:43:11.460Z,6.03
2023-04-10T01:45:48.464Z,6.07
2023-04-10T01:48:17.938Z,6.13
2023-04-10T01:50:47.942Z,6.15
2023-04-10T01:53:16.779Z,6.15
2023-04-10T01:55:44.873Z,6.10
2023-04-10T01:58:14.446Z,6.11
2023-04-10T02:00:43.670Z,6.09
2023-04-10T02:03:12.953Z,6.09
2023-04-10T02:05:55.493Z,6.05
2023-04-10T02:08:39.895Z,6.02
2023-04-10T02:11:22.227Z,6.04
2023-04-10T02:13:53.203Z,6.10
2023-04-10T02:16:23.177Z,6.12
2023-04-10T02:18:52.976Z,6.13
2023-04-10T02:21:20.824Z,6.12
2023-04-10T02:23:48.503Z,6.12
2023-04-10T02:26:16.366Z,6.11
2023-04-10T02:28:43.833Z,6.08
2023-04-10T02:31:11.366Z,6.05
2023-04-10T02:33:38.951Z,6.03
2023-04-10T02:36:07.008Z,6.08
2023-04-10T02:38:34.472Z,6.11
2023-04-10T02:41:02.074Z,6.09
2023-04-10T02:43:29.875Z,6.13
2023-04-10T02:45:57.654Z,6.09
2023-04-10T02:48:27.708Z,6.10
2023-04-10T02:50:59.992Z,6.15
2023-04-10T02:53:29.223Z,6.17
2023-04-10T02:56:00.653Z,6.07
2023-04-10T02:58:30.720Z,6.00
2023-04-10T03:00:59.234Z,5.89
2023-04-10T03:03:39.758Z,5.75
2023-04-10T03:06:09.182Z,5.72
2023-04-10T03:08:37.664Z,5.65
2023-04-10T03:11:07.687Z,5.61
2023-04-10T03:13:35.198Z,5.56
2023-04-10T03:16:02.776Z,5.46
2023-04-10T03:18:32.035Z,5.41
2023-04-10T03:20:59.672Z,5.40
2023-04-10T03:23:27.206Z,5.41
2023-04-10T03:25:55.119Z,5.44
2023-04-10T03:28:27.930Z,5.44
2023-04-10T03:30:56.537Z,5.41
2023-04-10T03:33:24.020Z,5.43
2023-04-10T03:35:51.578Z,5.46
2023-04-10T03:38:19.226Z,5.45
2023-04-10T03:40:46.755Z,5.44
2023-04-10T03:43:14.815Z,5.43
2023-04-10T03:45:42.703Z,5.50
2023-04-10T03:48:10.282Z,5.55
2023-04-10T03:50:42.369Z,5.57
2023-04-10T03:53:10.165Z,5.65
2023-04-10T03:55:38.847Z,5.67
2023-04-10T03:58:06.352Z,5.74
2023-04-10T04:00:34.352Z,5.73
2023-04-10T04:03:28.414Z,5.74
2023-04-10T04:05:56.404Z,5.71
2023-04-10T04:08:36.416Z,5.77
2023-04-10T04:11:09.741Z,5.77
2023-04-10T04:13:59.301Z,5.80
2023-04-10T04:16:52.837Z,5.82
2023-04-10T04:19:43.300Z,5.84
2023-04-10T04:22:29.652Z,5.87
2023-04-10T04:25:13.479Z,5.93
2023-04-10T04:28:01.945Z,5.95
2023-04-10T04:30:41.486Z,6.03
2023-04-10T04:33:32.038Z,6.08
2023-04-10T04:36:22.385Z,6.09
2023-04-10T04:39:12.936Z,6.23
2023-04-10T04:41:52.286Z,6.44
2023-04-10T04:44:35.763Z,6.66
2023-04-10T04:47:29.431Z,6.68
2023-04-10T04:50:17.277Z,6.65
2023-04-10T04:53:14.008Z,6.65
2023-04-10T04:56:08.511Z,6.64
2023-04-10T04:58:44.856Z,6.67
2023-04-10T05:01:28.679Z,6.69
2023-04-10T05:04:14.992Z,6.72
2023-04-10T05:07:01.148Z,6.77
2023-04-10T05:09:39.192Z,6.86
2023-04-10T05:12:16.582Z,6.98
2023-04-10T05:14:51.623Z,7.06
2023-04-10T05:17:37.674Z,7.20
2023-04-10T05:20:21.833Z,7.31
2023-04-10T05:23:24.910Z,7.37
2023-04-10T05:26:15.722Z,7.40
2023-04-10T05:28:57.500Z,7.46
2023-04-10T05:31:37.443Z,7.45
2023-04-10T05:34:17.698Z,7.43
2023-04-10T05:37:03.792Z,7.53
2023-04-10T05:39:45.537Z,7.87
2023-04-10T05:42:35.528Z,7.94
2023-04-10T05:45:15.324Z,8.15
2023-04-10T05:48:21.752Z,9.06
2023-04-10T05:51:22.108Z,10.30
2023-04-10T05:54:24.805Z,11.44
2023-04-10T05:57:11.199Z,12.33
2023-04-10T05:59:47.861Z,12.72
2023-04-10T06:02:26.086Z,12.84
2023-04-10T06:04:54.228Z,12.75
2023-04-10T06:07:21.860Z,12.75
2023-04-10T06:09:49.371Z,12.77
2023-04-10T06:12:17.372Z,12.90
2023-04-10T06:14:44.942Z,12.81
2023-04-10T06:17:12.850Z,12.88
2023-04-10T06:19:40.572Z,12.84
2023-04-10T06:22:08.130Z,13.09
2023-04-10T06:24:35.795Z,13.14
2023-04-10T06:27:03.271Z,13.52
2023-04-10T06:29:31.016Z,13.32
2023-04-10T06:31:58.759Z,13.69
2023-04-10T06:34:28.479Z,13.78
2023-04-10T06:37:04.431Z,13.92
2023-04-10T06:39:32.800Z,14.05
2023-04-10T06:42:01.376Z,14.11
2023-04-10T06:44:40.845Z,13.63
2023-04-10T06:47:09.252Z,12.97
2023-04-10T06:49:36.805Z,12.52
2023-04-10T06:52:04.506Z,12.71
2023-04-10T06:54:31.947Z,13.11
2023-04-10T06:56:59.374Z,13.66
2023-04-10T06:59:26.855Z,14.07
2023-04-10T07:01:54.606Z,13.98
2023-04-10T07:04:22.134Z,13.68
2023-04-10T07:06:49.655Z,14.14
2023-04-10T07:09:17.345Z,14.23
2023-04-10T07:11:44.752Z,13.92
2023-04-10T07:14:12.270Z,13.87
2023-04-10T07:16:39.763Z,14.26
2023-04-10T07:19:07.331Z,14.22
2023-04-10T07:21:34.823Z,14.18
2023-04-10T07:24:02.563Z,13.99
2023-04-10T07:26:30.072Z,13.05
2023-04-10T07:28:57.566Z,12.75
2023-04-10T07:31:25.156Z,12.85
2023-04-10T07:33:52.835Z,12.76
2023-04-10T07:36:20.239Z,12.62
2023-04-10T07:38:47.755Z,12.43
2023-04-10T07:41:15.253Z,12.44
2023-04-10T07:43:42.731Z,12.38
2023-04-10T07:46:10.411Z,12.15
2023-04-10T07:48:37.956Z,12.46
2023-04-10T07:51:09.314Z,12.59
2023-04-10T07:53:37.522Z,12.53
2023-04-10T07:56:05.654Z,12.71
2023-04-10T07:58:33.568Z,12.62
2023-04-10T08:01:01.090Z,12.94
2023-04-10T08:03:28.810Z,13.09
2023-04-10T08:05:56.654Z,13.14
2023-04-10T08:08:24.226Z,13.80
2023-04-10T08:10:51.666Z,13.85
2023-04-10T08:13:19.145Z,13.62
2023-04-10T08:15:46.664Z,13.61
2023-04-10T08:18:14.151Z,13.71
2023-04-10T08:20:41.715Z,13.61
2023-04-10T08:25:39.863Z,13.16
2023-04-10T08:28:07.353Z,13.26
2023-04-10T08:30:34.865Z,13.13
2023-04-10T08:33:02.414Z,13.49
2023-04-10T08:35:30.010Z,13.36
2023-04-10T08:38:11.692Z,13.63
2023-04-10T08:40:39.733Z,14.10
2023-04-10T08:43:07.236Z,14.74
2023-04-10T08:45:34.705Z,15.45
2023-04-10T08:48:05.988Z,15.17
2023-04-10T08:50:36.274Z,15.03
2023-04-10T08:53:11.019Z,14.76
2023-04-10T08:55:40.381Z,14.26
2023-04-10T08:58:08.641Z,14.05
2023-04-10T09:00:38.796Z,13.71
2023-04-10T09:03:12.056Z,13.48
2023-04-10T09:05:39.810Z,13.84
2023-04-10T09:08:12.301Z,14.04
2023-04-10T09:10:39.892Z,13.47
2023-04-10T09:13:07.335Z,13.23
2023-04-10T09:16:00.839Z,13.40
2023-04-10T09:18:41.593Z,13.81
2023-04-10T09:21:11.448Z,13.67
2023-04-10T09:23:39.347Z,13.62
2023-04-10T09:26:24.566Z,13.37
2023-04-10T09:29:06.359Z,13.58
2023-04-10T09:31:39.317Z,14.04
2023-04-10T09:34:15.437Z,14.80
2023-04-10T09:36:44.943Z,15.80
2023-04-10T09:39:12.729Z,16.08
2023-04-10T09:41:55.734Z,16.38
2023-04-10T09:44:33.969Z,16.41
2023-04-10T09:47:24.263Z,16.39
2023-04-10T09:49:56.612Z,16.28
2023-04-10T09:52:29.599Z,16.31
2023-04-10T09:55:02.190Z,16.42
2023-04-10T09:57:32.403Z,16.63
2023-04-10T10:00:06.176Z,16.65
2023-04-10T10:02:37.639Z,17.10
2023-04-10T10:05:06.355Z,17.13
2023-04-10T10:07:34.757Z,17.27
2023-04-10T10:10:03.637Z,17.81
2023-04-10T10:12:40.488Z,17.53
2023-04-10T10:15:29.889Z,17.13
2023-04-10T10:18:25.101Z,17.30
2023-04-10T10:20:53.661Z,17.57
2023-04-10T10:23:22.598Z,17.78
2023-04-10T10:25:51.509Z,17.63
2023-04-10T10:28:20.136Z,17.51
2023-04-10T10:30:49.877Z,17.10
2023-04-10T10:33:18.041Z,17.23
2023-04-10T10:35:46.467Z,17.10
2023-04-10T10:38:14.487Z,17.15
2023-04-10T10:40:55.038Z,16.52
2023-04-10T10:43:36.490Z,16.55
2023-04-10T10:46:17.135Z,16.59
2023-04-10T10:48:58.202Z,16.99
2023-04-10T10:51:43.710Z,16.74
2023-04-10T10:54:42.483Z,16.64
2023-04-10T10:57:46.867Z,16.61
2023-04-10T11:00:15.858Z,17.01
2023-04-10T11:02:43.655Z,17.36
2023-04-10T11:05:31.637Z,17.38
2023-04-10T11:07:59.307Z,17.31
2023-04-10T11:11:07.197Z,16.54
2023-04-10T11:13:36.665Z,16.66
2023-04-10T11:16:06.744Z,16.33
2023-04-10T11:18:47.271Z,16.16
2023-04-10T11:21:23.912Z,16.11
2023-04-10T11:23:52.867Z,16.24
2023-04-10T11:26:35.516Z,15.91
2023-04-10T11:29:03.730Z,15.82
2023-04-10T11:31:31.788Z,16.38
2023-04-10T11:34:08.152Z,16.54
2023-04-10T11:36:38.909Z,16.89
2023-04-10T11:39:16.181Z,16.74
2023-04-10T11:41:45.964Z,16.22
2023-04-10T11:44:39.633Z,16.20
2023-04-10T11:47:07.964Z,16.12
2023-04-10T11:49:37.140Z,15.87
2023-04-10T11:52:04.723Z,16.33
2023-04-10T11:54:32.759Z,16.22
2023-04-10T11:57:05.820Z,16.16
2023-04-10T11:59:34.263Z,16.62
2023-04-10T12:02:07.882Z,16.49
2023-04-10T12:04:36.814Z,16.30
2023-04-10T12:07:04.624Z,16.18
2023-04-10T12:09:32.479Z,16.46
2023-04-10T12:12:04.855Z,16.45
2023-04-10T12:14:37.137Z,16.18
2023-04-10T12:17:06.733Z,16.23
2023-04-10T12:19:35.556Z,16.94
2023-04-10T12:22:03.281Z,17.06
2023-04-10T12:24:46.957Z,16.84
2023-04-10T12:27:21.897Z,16.32
2023-04-10T12:29:52.477Z,16.30
2023-04-10T12:32:20.777Z,16.33
2023-04-10T12:34:59.038Z,16.39
2023-04-10T12:37:54.644Z,16.15
2023-04-10T12:40:22.197Z,16.20
2023-04-10T12:42:49.660Z,16.60
2023-04-10T12:45:17.203Z,16.73
2023-04-10T12:47:54.400Z,16.34
2023-04-10T12:50:22.386Z,16.69
2023-04-10T12:53:04.978Z,16.29
2023-04-10T12:55:33.077Z,16.26
2023-04-10T12:58:22.603Z,15.94
2023-04-10T13:00:50.248Z,15.67
2023-04-10T13:03:17.896Z,15.73
2023-04-10T13:05:46.244Z,15.53
2023-04-10T13:08:14.360Z,16.03
2023-04-10T13:10:43.666Z,16.31
2023-04-10T13:13:13.958Z,16.29
2023-04-10T13:15:42.066Z,16.09
2023-04-10T13:18:12.755Z,16.23
2023-04-10T13:20:41.930Z,16.41
2023-04-10T13:23:09.579Z,16.19
2023-04-10T13:25:43.120Z,16.21
2023-04-10T13:28:11.637Z,16.31
2023-04-10T13:30:41.565Z,16.23
2023-04-10T13:33:09.739Z,16.41
2023-04-10T13:35:37.610Z,16.56
2023-04-10T13:38:05.252Z,16.25
2023-04-10T13:40:33.419Z,16.09
2023-04-10T13:43:00.997Z,15.31
2023-04-10T13:45:28.467Z,14.87
2023-04-10T13:47:56.054Z,15.06
2023-04-10T13:50:23.658Z,15.44
2023-04-10T13:52:52.333Z,15.23
2023-04-10T13:55:21.137Z,15.63
2023-04-10T13:57:48.597Z,15.55
2023-04-10T14:00:16.451Z,15.52
2023-04-10T14:02:44.232Z,15.16
2023-04-10T14:05:11.901Z,15.01
2023-04-10T14:07:39.498Z,15.26
2023-04-10T14:10:07.838Z,15.20
2023-04-10T14:12:37.068Z,15.12
2023-04-10T14:15:06.014Z,14.80
2023-04-10T14:17:34.213Z,14.91
2023-04-10T14:20:01.975Z,14.93
2023-04-10T14:22:31.781Z,15.20
2023-04-10T14:25:11.820Z,15.32
2023-04-10T14:27:40.334Z,15.08
2023-04-10T14:30:08.895Z,14.77
2023-04-10T14:32:36.552Z,14.61
2023-04-10T14:35:04.282Z,14.47
2023-04-10T14:37:32.621Z,14.42
2023-04-10T14:40:00.216Z,14.13
2023-04-10T14:42:27.829Z,14.09
2023-04-10T14:44:55.243Z,14.12
2023-04-10T14:47:22.883Z,14.45
2023-04-10T14:49:50.442Z,14.44
2023-04-10T14:52:18.690Z,14.53
2023-04-10T14:54:46.147Z,14.57
2023-04-10T14:57:15.734Z,14.42
2023-04-10T14:59:43.358Z,14.46
2023-04-10T15:02:11.024Z,14.70
2023-04-10T15:04:38.596Z,14.64
2023-04-10T15:07:06.050Z,14.65
2023-04-10T15:09:33.676Z,14.66
2023-04-10T15:12:01.946Z,14.66
2023-04-10T15:14:29.944Z,14.28
2023-04-10T15:16:57.569Z,14.34
2023-04-10T15:19:25.195Z,14.34
2023-04-10T15:21:53.906Z,14.28
2023-04-10T15:24:21.514Z,14.28
2023-04-10T15:26:49.041Z,14.40
2023-04-10T15:29:16.586Z,14.29
2023-04-10T15:31:44.024Z,14.05
2023-04-10T15:34:11.515Z,13.97
2023-04-10T15:36:39.132Z,13.98
2023-04-10T15:39:08.709Z,13.90
2023-04-10T15:41:36.221Z,13.87
2023-04-10T15:44:03.926Z,13.82
2023-04-10T15:46:32.992Z,13.68
2023-04-10T15:49:01.214Z,13.52
2023-04-10T15:51:28.766Z,13.66
2023-04-10T15:53:56.390Z,13.39
2023-04-10T15:56:24.032Z,13.43
2023-04-10T15:58:51.543Z,13.34
2023-04-10T16:01:19.062Z,13.26
2023-04-10T16:03:46.755Z,13.40
2023-04-10T16:06:14.370Z,13.35
2023-04-10T16:08:41.853Z,13.23
2023-04-10T16:11:09.353Z,13.13
2023-04-10T16:13:38.073Z,13.07
2023-04-10T16:16:09.281Z,13.23
2023-04-10T16:18:36.795Z,13.00
2023-04-10T16:21:08.529Z,13.02
2023-04-10T16:23:35.995Z,12.87
2023-04-10T16:26:03.457Z,13.02
2023-04-10T16:28:31.644Z,12.89
2023-04-10T16:30:59.144Z,12.92
2023-04-10T16:33:26.706Z,12.95
2023-04-10T16:35:54.178Z,12.96
2023-04-10T16:38:21.663Z,12.88
2023-04-10T16:40:49.102Z,12.96
2023-04-10T16:43:16.520Z,12.99
2023-04-10T16:45:43.931Z,12.85
2023-04-10T16:48:11.512Z,12.86
2023-04-10T16:50:38.972Z,12.85
2023-04-10T16:53:06.505Z,12.76
2023-04-10T16:55:33.932Z,12.76
2023-04-10T16:58:01.494Z,12.75
2023-04-10T17:00:29.187Z,12.74
2023-04-10T17:02:59.289Z,12.75
2023-04-10T17:05:33.324Z,12.69
2023-04-10T17:08:00.917Z,12.66
2023-04-10T17:10:28.423Z,12.56
2023-04-10T17:12:56.002Z,12.52
2023-04-10T17:15:23.631Z,12.42
2023-04-10T17:17:51.574Z,12.44
2023-04-10T17:20:19.091Z,12.40
2023-04-10T17:22:46.910Z,12.33
2023-04-10T17:25:14.400Z,12.21
2023-04-10T17:27:41.859Z,12.19
2023-04-10T17:30:13.230Z,12.12
2023-04-10T17:32:41.951Z,12.07
2023-04-10T17:35:09.589Z,12.04
2023-04-10T17:37:37.066Z,11.96
2023-04-10T17:40:04.838Z,11.91
2023-04-10T17:42:32.407Z,11.81
2023-04-10T17:44:59.847Z,11.71
2023-04-10T17:47:27.439Z,11.62
2023-04-10T17:49:56.034Z,11.60
2023-04-10T17:52:24.070Z,11.57
2023-04-10T17:54:51.542Z,11.57
2023-04-10T17:57:18.988Z,11.41
2023-04-10T17:59:46.449Z,11.39
2023-04-10T18:02:14.039Z,11.32
2023-04-10T18:04:41.477Z,11.22
2023-04-10T18:07:08.992Z,11.25
2023-04-10T18:09:37.736Z,11.14
2023-04-10T18:12:05.243Z,11.09
2023-04-10T18:14:32.714Z,11.04
2023-04-10T18:17:00.332Z,10.94
2023-04-10T18:19:29.879Z,10.95
2023-04-10T18:21:57.296Z,10.74
2023-04-10T18:24:24.702Z,10.61
2023-04-10T18:26:52.153Z,10.46
2023-04-10T18:29:19.962Z,10.48
2023-04-10T18:31:47.464Z,10.43
2023-04-10T18:34:14.861Z,10.44
2023-04-10T18:36:42.354Z,10.41
2023-04-10T18:39:09.795Z,10.29
2023-04-10T18:41:38.459Z,10.08
2023-04-10T18:44:06.256Z,10.04
2023-04-10T18:46:33.928Z,9.99
2023-04-10T18:49:03.111Z,9.93
2023-04-10T18:51:34.969Z,9.77
2023-04-10T18:54:03.828Z,9.78
2023-04-10T18:56:31.667Z,9.67
2023-04-10T18:58:59.305Z,9.59
2023-04-10T19:01:27.183Z,9.58
2023-04-10T19:03:55.183Z,9.52
2023-04-10T19:06:24.126Z,9.46
2023-04-10T19:08:51.905Z,9.37
2023-04-10T19:11:19.448Z,9.37
2023-04-10T19:13:47.013Z,9.33
2023-04-10T19:16:16.161Z,9.35
2023-04-10T19:18:43.673Z,9.34
2023-04-10T19:21:11.285Z,9.32
2023-04-10T19:23:39.103Z,9.34
2023-04-10T19:26:07.586Z,9.34
2023-04-10T19:28:35.196Z,9.35
2023-04-10T19:31:02.706Z,9.36
2023-04-10T19:33:30.440Z,9.41
2023-04-10T19:35:59.203Z,9.34
2023-04-10T19:38:27.576Z,9.36
2023-04-10T19:40:55.380Z,9.33
2023-04-10T19:43:22.889Z,9.30
2023-04-10T19:45:50.708Z,9.31
2023-04-10T19:48:18.255Z,9.10
2023-04-10T19:50:45.761Z,9.11
2023-04-10T19:53:15.759Z,9.07
2023-04-10T19:55:44.788Z,9.12
2023-04-10T19:58:29.923Z,9.05
2023-04-10T20:01:04.602Z,9.05
2023-04-10T20:03:33.182Z,9.12
2023-04-10T20:06:03.404Z,9.10
2023-04-10T20:08:30.917Z,9.17
2023-04-10T20:10:58.584Z,9.31
2023-04-10T20:13:26.051Z,9.38
2023-04-10T20:15:53.649Z,9.36
2023-04-10T20:18:21.231Z,9.42
2023-04-10T20:20:48.669Z,9.53
2023-04-10T20:23:16.221Z,9.58
2023-04-10T20:25:43.693Z,9.63
2023-04-10T20:28:11.327Z,9.55
2023-04-10T20:30:39.571Z,9.68
2023-04-10T20:33:07.073Z,9.79
2023-04-10T20:35:34.639Z,9.74
2023-04-10T20:38:02.178Z,9.79
2023-04-10T20:40:29.567Z,9.73
2023-04-10T20:42:57.056Z,9.84
2023-04-10T20:45:24.439Z,9.86
2023-04-10T20:47:52.065Z,9.88
2023-04-10T20:50:19.730Z,9.90
2023-04-10T20:52:47.243Z,9.78
2023-04-10T20:55:14.709Z,9.76
2023-04-10T20:57:42.155Z,9.73
2023-04-10T21:00:10.440Z,9.70
2023-04-10T21:02:38.162Z,9.71
2023-04-10T21:05:06.072Z,9.69
2023-04-10T21:07:33.566Z,9.68
2023-04-10T21:10:01.033Z,9.69
2023-04-10T21:12:28.541Z,9.67
2023-04-10T21:14:55.996Z,9.68
2023-04-10T21:17:23.742Z,9.78
2023-04-10T21:19:51.213Z,9.79
2023-04-10T21:22:18.721Z,9.83
2023-04-10T21:24:46.165Z,9.90
2023-04-10T21:27:14.101Z,9.87
2023-04-10T21:29:41.477Z,9.91
2023-04-10T21:32:09.023Z,9.93
2023-04-10T21:34:36.605Z,9.96
2023-04-10T21:37:04.100Z,9.91
2023-04-10T21:39:31.620Z,9.88
2023-04-10T21:41:59.093Z,9.92
2023-04-10T21:44:26.454Z,9.84
2023-04-10T21:46:53.942Z,10.04
2023-04-10T21:49:21.375Z,10.17
2023-04-10T21:51:48.893Z,10.10
2023-04-10T21:54:16.309Z,10.05
2023-04-10T21:56:43.906Z,10.05
2023-04-10T21:59:11.718Z,10.01
2023-04-10T22:01:41.696Z,10.11
2023-04-10T22:04:09.526Z,10.10
2023-04-10T22:06:37.006Z,10.07
2023-04-10T22:09:04.541Z,10.06
2023-04-10T22:11:33.449Z,10.05
2023-04-10T22:14:09.088Z,10.04
2023-04-10T22:16:43.888Z,9.91
2023-04-10T22:19:11.333Z,9.88
2023-04-10T22:21:38.847Z,9.84
2023-04-10T22:24:06.490Z,9.83
2023-04-10T22:26:35.182Z,9.86
2023-04-10T22:29:04.606Z,9.86
2023-04-10T22:31:32.161Z,9.83
2023-04-10T22:33:59.555Z,9.78
2023-04-10T22:36:34.303Z,9.78
2023-04-10T22:39:02.313Z,9.90
2023-04-10T22:41:30.750Z,9.80
2023-04-10T22:43:58.335Z,9.72
2023-04-10T22:46:26.172Z,9.72
2023-04-10T22:48:54.915Z,9.64
2023-04-10T22:51:22.625Z,9.62
2023-04-10T22:53:50.134Z,9.63
2023-04-10T22:56:19.420Z,9.62
2023-04-10T22:58:46.933Z,9.57
2023-04-10T23:01:14.543Z,9.67
2023-04-10T23:03:42.159Z,9.65
2023-04-10T23:06:09.723Z,9.72
2023-04-10T23:08:37.278Z,9.59
2023-04-10T23:11:04.863Z,9.60
2023-04-10T23:13:32.430Z,9.65
2023-04-10T23:15:59.928Z,9.63
2023-04-10T23:18:27.546Z,9.61
2023-04-10T23:20:55.109Z,9.55
2023-04-10T23:23:22.631Z,9.68
2023-04-10T23:25:58.027Z,9.68
2023-04-10T23:28:26.155Z,9.73
2023-04-10T23:30:53.657Z,9.80
2023-04-10T23:33:21.293Z,9.77
2023-04-10T23:35:48.712Z,9.78
2023-04-10T23:38:16.377Z,9.71
2023-04-10T23:40:43.815Z,9.64
2023-04-10T23:43:11.399Z,9.59
2023-04-10T23:45:38.889Z,9.60
2023-04-10T23:48:08.994Z,9.64
2023-04-10T23:50:36.594Z,9.61
2023-04-10T23:53:04.151Z,9.57
2023-04-10T23:55:31.642Z,9.72
2023-04-10T23:57:59.020Z,9.62
